Time;durP1;ratioP1;P1;durP2;ratioP2;P2;SDS_P1;SDS_P2;PMS_P1;PMS_P2;Temp;Humidity;BMP_temperature;BMP_pressure;BME280_temperature;BME280_humidity;BME280_pressure;Samples;Min_cycle;Max_cycle;Signal;HPM_P1;HPM_P2
2022/10/24 00:00:15;;;;;;;8.05;5.30;;;13.90;99.90;;;;;;5022723;28;20607;-48
2022/10/24 00:02:41;;;;;;;6.07;4.53;;;13.90;99.90;;;;;;5026162;28;20026;-50
2022/10/24 00:05:07;;;;;;;5.90;4.57;;;13.90;99.90;;;;;;5021234;28;20576;-49
2022/10/24 00:07:32;;;;;;;6.07;4.50;;;13.90;99.90;;;;;;5021487;28;20128;-50
2022/10/24 00:09:58;;;;;;;7.25;4.55;;;13.90;99.90;;;;;;5024662;28;20038;-51
2022/10/24 00:12:23;;;;;;;8.70;4.55;;;13.90;99.90;;;;;;5006037;28;20401;-49
2022/10/24 00:14:49;;;;;;;7.40;4.68;;;13.80;99.90;;;;;;5024005;28;20029;-53
2022/10/24 00:17:14;;;;;;;8.00;5.43;;;13.90;99.90;;;;;;5005533;28;20103;-53
2022/10/24 00:19:40;;;;;;;10.95;6.13;;;13.80;99.90;;;;;;5019709;28;20026;-53
2022/10/24 00:22:05;;;;;;;8.23;5.47;;;13.70;99.90;;;;;;4997202;28;20044;-49
2022/10/24 00:24:31;;;;;;;7.80;4.80;;;13.70;99.90;;;;;;5021801;28;20548;-50
2022/10/24 00:26:56;;;;;;;7.45;4.65;;;13.70;99.90;;;;;;5009781;28;20026;-49
2022/10/24 00:29:22;;;;;;;7.72;4.70;;;13.70;99.90;;;;;;5025273;28;20040;-54
2022/10/24 00:31:48;;;;;;;8.27;4.72;;;13.70;99.90;;;;;;5015009;28;20060;-54
2022/10/24 00:34:14;;;;;;;6.53;4.75;;;13.70;99.90;;;;;;5022666;28;20495;-54
2022/10/24 00:36:39;;;;;;;6.75;4.57;;;13.70;99.90;;;;;;5014708;28;20139;-51
2022/10/24 00:39:05;;;;;;;5.57;4.57;;;13.70;99.90;;;;;;5020838;28;20073;-53
2022/10/24 00:41:33;;;;;;;8.38;5.28;;;13.70;99.90;;;;;;5018125;28;20037;-54
2022/10/24 00:44:18;;;;;;;8.35;4.05;;;13.60;99.90;;;;;;5018247;28;20052;-52
2022/10/24 00:47:05;;;;;;;7.05;4.90;;;13.60;99.90;;;;;;5007945;28;20037;-55
2022/10/24 00:49:36;;;;;;;8.93;5.15;;;13.60;99.90;;;;;;4988489;28;20093;-55
2022/10/24 00:52:06;;;;;;;7.72;4.50;;;13.60;99.90;;;;;;5002617;28;20033;-51
2022/10/24 00:54:33;;;;;;;7.47;5.25;;;13.50;99.90;;;;;;5028617;28;20377;-54
2022/10/24 00:57:13;;;;;;;9.93;5.88;;;13.50;99.90;;;;;;5006380;28;20030;-55
2022/10/24 00:59:41;;;;;;;6.68;4.88;;;13.50;99.90;;;;;;4989813;28;20069;-53
2022/10/24 01:02:07;;;;;;;8.25;4.57;;;13.50;99.90;;;;;;5011366;28;20100;-52
2022/10/24 01:04:33;;;;;;;7.53;5.15;;;13.40;99.90;;;;;;5027903;28;20049;-51
2022/10/24 01:07:36;;;;;;;7.43;5.03;;;13.50;99.90;;;;;;5007878;28;20034;-55
2022/10/24 01:10:20;;;;;;;9.27;5.18;;;13.40;99.90;;;;;;4989402;28;20033;-51
2022/10/24 01:13:05;;;;;;;5.70;3.97;;;13.40;99.90;;;;;;4989341;28;20030;-55
2022/10/24 01:16:07;;;;;;;5.93;4.78;;;13.40;99.90;;;;;;4990697;28;20633;-54
2022/10/24 01:18:44;;;;;;;9.25;5.20;;;13.40;99.90;;;;;;5028792;28;20030;-53
2022/10/24 01:21:29;;;;;;;8.85;4.53;;;13.40;99.90;;;;;;5001295;28;20024;-55
2022/10/24 01:24:13;;;;;;;7.45;4.15;;;13.40;99.90;;;;;;5013219;28;20037;-52
2022/10/24 01:26:58;;;;;;;7.30;4.85;;;13.50;99.90;;;;;;5015146;28;20045;-52
2022/10/24 01:29:45;;;;;;;6.80;5.07;;;13.50;99.90;;;;;;4989300;28;20027;-55
2022/10/24 01:32:15;;;;;;;7.55;3.92;;;13.50;99.90;;;;;;5010448;28;20405;-53
2022/10/24 01:34:48;;;;;;;8.48;5.03;;;13.50;99.90;;;;;;4989086;28;20033;-51
2022/10/24 01:37:52;;;;;;;7.18;4.75;;;13.50;99.90;;;;;;5014339;28;20052;-55
2022/10/24 01:40:26;;;;;;;7.65;5.35;;;13.50;99.90;;;;;;5017017;28;20037;-54
2022/10/24 01:42:54;;;;;;;7.65;5.68;;;13.60;99.90;;;;;;5032667;28;20025;-51
2022/10/24 01:45:26;;;;;;;6.68;4.90;;;13.50;99.90;;;;;;5012575;28;20026;-51
2022/10/24 01:47:55;;;;;;;8.00;5.45;;;13.60;99.90;;;;;;5012775;28;20041;-55
2022/10/24 01:50:23;;;;;;;6.30;4.85;;;13.50;99.90;;;;;;5031885;28;20188;-51
2022/10/24 01:52:49;;;;;;;7.32;5.40;;;13.50;99.90;;;;;;5030211;28;20072;-55
2022/10/24 01:55:15;;;;;;;7.28;4.82;;;13.40;99.90;;;;;;5012719;28;20038;-55
2022/10/24 01:57:41;;;;;;;7.72;4.60;;;13.40;99.90;;;;;;5011205;28;20042;-53
2022/10/24 02:00:13;;;;;;;7.80;5.00;;;13.30;99.90;;;;;;5031475;28;20030;-55
2022/10/24 02:02:42;;;;;;;8.30;5.53;;;13.30;99.90;;;;;;5008824;28;20029;-54
2022/10/24 02:05:24;;;;;;;6.68;4.63;;;13.20;99.90;;;;;;5031751;28;20045;-55
2022/10/24 02:07:56;;;;;;;9.05;5.20;;;13.10;99.90;;;;;;5010028;28;20034;-55
2022/10/24 02:10:32;;;;;;;7.18;4.82;;;13.10;99.90;;;;;;5031613;28;20057;-54
2022/10/24 02:13:09;;;;;;;8.35;5.32;;;13.00;99.90;;;;;;5031803;28;20061;-55
2022/10/24 02:15:43;;;;;;;6.28;4.85;;;13.00;99.90;;;;;;4991615;28;20045;-54
2022/10/24 02:18:10;;;;;;;6.30;4.68;;;12.90;99.90;;;;;;5031922;28;20034;-55
2022/10/24 02:21:03;;;;;;;7.90;4.47;;;12.80;99.90;;;;;;5009447;28;20037;-54
2022/10/24 02:23:38;;;;;;;6.80;4.65;;;12.70;99.90;;;;;;5019376;28;20034;-55
2022/10/24 02:26:09;;;;;;;8.20;4.97;;;12.70;99.90;;;;;;4999016;28;20131;-55
2022/10/24 02:28:41;;;;;;;9.23;4.63;;;12.60;99.90;;;;;;5031474;28;20061;-55
2022/10/24 02:31:14;;;;;;;8.07;3.97;;;12.50;99.90;;;;;;4999394;28;20025;-53
2022/10/24 02:33:42;;;;;;;6.47;4.20;;;12.50;99.90;;;;;;5031834;28;20030;-55
2022/10/24 02:36:10;;;;;;;5.97;4.70;;;12.40;99.90;;;;;;5014629;28;20482;-55
2022/10/24 02:38:39;;;;;;;6.35;4.35;;;12.30;99.90;;;;;;5031307;28;20497;-55
2022/10/24 02:41:10;;;;;;;6.10;4.30;;;12.30;99.90;;;;;;5013441;28;20022;-55
2022/10/24 02:43:39;;;;;;;6.70;4.50;;;12.20;99.90;;;;;;5031250;28;20029;-56
2022/10/24 02:46:05;;;;;;;7.25;4.50;;;12.20;99.90;;;;;;5013437;28;20038;-52
2022/10/24 02:48:34;;;;;;;8.10;5.47;;;12.10;99.90;;;;;;5030054;28;20116;-54
2022/10/24 02:51:01;;;;;;;8.55;4.43;;;12.00;99.90;;;;;;5012545;28;20166;-55
2022/10/24 02:53:27;;;;;;;5.93;4.40;;;12.00;99.90;;;;;;5031090;28;20113;-56
2022/10/24 02:55:53;;;;;;;7.57;4.57;;;11.90;99.90;;;;;;5011815;28;20033;-55
2022/10/24 02:58:18;;;;;;;7.30;4.65;;;12.00;99.90;;;;;;5030968;28;20090;-52
2022/10/24 03:00:44;;;;;;;7.75;5.28;;;11.90;99.90;;;;;;5010301;28;20030;-54
2022/10/24 03:03:09;;;;;;;6.00;4.75;;;11.90;99.90;;;;;;5031190;28;20029;-55
2022/10/24 03:05:35;;;;;;;7.53;4.90;;;11.90;99.90;;;;;;5011509;28;20068;-54
2022/10/24 03:08:01;;;;;;;5.90;4.55;;;11.90;99.90;;;;;;5028318;28;20321;-55
2022/10/24 03:10:26;;;;;;;8.18;4.97;;;11.90;99.90;;;;;;5011564;28;20490;-49
2022/10/24 03:12:52;;;;;;;9.70;5.00;;;11.80;99.90;;;;;;5010464;28;20521;-58
2022/10/24 03:15:18;;;;;;;7.15;4.93;;;11.80;99.90;;;;;;5030008;28;20098;-59
2022/10/24 03:17:43;;;;;;;8.75;5.45;;;11.80;99.90;;;;;;5009270;28;20030;-58
2022/10/24 03:20:09;;;;;;;7.90;4.70;;;11.70;99.90;;;;;;5029933;28;20036;-58
2022/10/24 03:22:34;;;;;;;9.07;4.68;;;11.60;99.90;;;;;;5010263;28;20113;-58
2022/10/24 03:25:02;;;;;;;7.05;4.80;;;11.50;99.90;;;;;;5024538;28;20061;-58
2022/10/24 03:27:28;;;;;;;10.20;5.13;;;11.50;99.90;;;;;;5009302;28;20029;-58
2022/10/24 03:29:54;;;;;;;11.45;5.50;;;11.40;99.90;;;;;;5030195;28;20295;-59
2022/10/24 03:32:19;;;;;;;14.80;6.20;;;11.40;99.90;;;;;;5009381;28;20605;-58
2022/10/24 03:34:45;;;;;;;7.25;5.13;;;11.40;99.90;;;;;;5029298;28;20497;-58
2022/10/24 03:37:10;;;;;;;11.60;5.50;;;11.40;99.90;;;;;;5009089;28;20129;-59
2022/10/24 03:39:36;;;;;;;7.45;4.65;;;11.40;99.90;;;;;;5029375;28;20037;-59
2022/10/24 03:42:02;;;;;;;7.57;4.80;;;11.40;99.90;;;;;;5018907;28;20041;-59
2022/10/24 03:44:27;;;;;;;7.60;4.63;;;11.30;99.90;;;;;;5010780;28;20033;-58
2022/10/24 03:46:53;;;;;;;8.68;4.90;;;11.30;99.90;;;;;;5027452;28;20045;-58
2022/10/24 03:49:18;;;;;;;8.75;4.40;;;11.30;99.90;;;;;;5010525;28;20036;-59
2022/10/24 03:51:44;;;;;;;7.55;4.90;;;11.20;99.90;;;;;;5027082;28;20064;-58
2022/10/24 03:54:10;;;;;;;7.68;4.55;;;11.20;99.90;;;;;;5030095;28;20030;-59
2022/10/24 03:56:36;;;;;;;7.20;4.78;;;11.10;99.90;;;;;;5014824;28;20363;-59
2022/10/24 03:59:01;;;;;;;8.27;4.90;;;11.10;99.90;;;;;;5029437;28;20029;-58
2022/10/24 04:01:27;;;;;;;8.07;4.85;;;11.00;99.90;;;;;;5013528;28;20080;-59
2022/10/24 04:03:52;;;;;;;10.88;4.85;;;11.00;99.90;;;;;;5029676;28;20413;-58
2022/10/24 04:06:18;;;;;;;9.35;4.90;;;10.90;99.90;;;;;;5011847;28;20036;-58
2022/10/24 04:08:43;;;;;;;9.68;4.90;;;10.90;99.90;;;;;;5029316;28;20025;-58
2022/10/24 04:11:09;;;;;;;9.60;5.05;;;10.80;99.90;;;;;;5010145;28;20025;-59
2022/10/24 04:13:35;;;;;;;9.00;5.05;;;10.80;99.90;;;;;;5027990;28;20029;-58
2022/10/24 04:16:00;;;;;;;10.25;4.70;;;10.80;99.90;;;;;;5008889;28;20586;-58
2022/10/24 04:18:26;;;;;;;14.70;5.03;;;10.80;99.90;;;;;;5029345;28;20028;-58
2022/10/24 04:20:51;;;;;;;8.27;4.88;;;10.70;99.90;;;;;;5010206;28;20029;-58
2022/10/24 04:23:17;;;;;;;9.60;4.70;;;10.70;99.90;;;;;;5016972;28;20026;-58
2022/10/24 04:25:42;;;;;;;6.95;4.93;;;10.70;99.90;;;;;;5008130;28;20041;-58
2022/10/24 04:28:08;;;;;;;9.20;4.65;;;10.70;99.90;;;;;;5008951;28;20037;-59
2022/10/24 04:30:33;;;;;;;7.68;4.35;;;10.60;99.90;;;;;;5028322;28;20041;-58
2022/10/24 04:32:59;;;;;;;7.22;4.05;;;10.60;99.90;;;;;;5008172;28;20022;-51
2022/10/24 04:35:24;;;;;;;6.97;4.35;;;10.60;99.90;;;;;;5028449;28;20048;-54
2022/10/24 04:37:50;;;;;;;8.70;4.93;;;10.50;99.90;;;;;;5008100;28;20099;-53
2022/10/24 04:40:16;;;;;;;8.15;5.10;;;10.50;99.90;;;;;;5028174;28;20060;-53
2022/10/24 04:42:42;;;;;;;8.95;5.15;;;10.40;99.90;;;;;;5008368;28;20026;-53
2022/10/24 04:45:08;;;;;;;6.05;4.38;;;10.40;99.90;;;;;;5028555;28;20051;-52
2022/10/24 04:47:33;;;;;;;10.38;4.28;;;10.40;99.90;;;;;;5007995;28;20045;-54
2022/10/24 04:49:59;;;;;;;8.98;5.07;;;10.40;99.90;;;;;;5028516;28;20731;-54
2022/10/24 04:52:24;;;;;;;8.43;4.65;;;10.40;99.90;;;;;;5008256;28;20092;-55
2022/10/24 04:54:50;;;;;;;6.00;4.45;;;10.30;99.90;;;;;;5028361;28;20029;-52
2022/10/24 04:57:15;;;;;;;11.75;5.20;;;10.30;99.90;;;;;;5017847;28;20036;-54
2022/10/24 04:59:41;;;;;;;8.85;4.63;;;10.30;99.90;;;;;;5008177;28;20049;-55
2022/10/24 05:02:06;;;;;;;5.60;4.15;;;10.30;99.90;;;;;;5016437;28;20041;-53
2022/10/24 05:04:32;;;;;;;7.18;4.65;;;10.30;99.90;;;;;;5009838;28;20196;-53
2022/10/24 05:06:57;;;;;;;8.10;4.30;;;10.20;99.90;;;;;;5024806;28;20042;-55
2022/10/24 05:09:23;;;;;;;8.20;4.53;;;10.20;99.90;;;;;;5029220;28;20032;-53
2022/10/24 05:11:48;;;;;;;9.48;5.32;;;10.10;99.90;;;;;;5010802;28;20374;-54
2022/10/24 05:14:14;;;;;;;8.38;5.00;;;10.10;99.90;;;;;;5028937;28;20052;-56
2022/10/24 05:16:39;;;;;;;7.55;4.60;;;10.10;99.90;;;;;;5012318;28;20056;-54
2022/10/24 05:19:05;;;;;;;14.32;5.05;;;10.10;99.90;;;;;;5028767;28;20028;-54
2022/10/24 05:21:32;;;;;;;10.25;4.50;;;10.10;99.90;;;;;;5010868;28;20084;-53
2022/10/24 05:23:58;;;;;;;14.70;5.35;;;10.10;99.90;;;;;;5010476;28;20453;-55
2022/10/24 05:26:23;;;;;;;8.43;4.63;;;10.10;99.90;;;;;;5024835;28;20045;-55
2022/10/24 05:28:49;;;;;;;8.02;4.78;;;10.00;99.90;;;;;;5029032;28;20049;-56
2022/10/24 05:31:14;;;;;;;7.60;4.45;;;10.00;99.90;;;;;;5008077;28;20045;-54
2022/10/24 05:33:40;;;;;;;7.93;4.13;;;10.00;99.90;;;;;;5027391;28;20044;-51
2022/10/24 05:36:06;;;;;;;8.10;4.18;;;10.00;99.90;;;;;;5027795;28;20100;-55
2022/10/24 05:38:31;;;;;;;7.80;4.22;;;10.00;99.90;;;;;;5007530;28;20429;-52
2022/10/24 05:40:57;;;;;;;7.00;4.40;;;10.00;99.90;;;;;;5028090;28;20022;-56
2022/10/24 05:43:22;;;;;;;12.38;5.07;;;10.00;99.90;;;;;;5007579;28;20037;-55
2022/10/24 05:45:48;;;;;;;4.97;4.10;;;10.00;99.90;;;;;;5027979;28;20038;-53
2022/10/24 05:48:14;;;;;;;7.80;4.68;;;10.10;99.90;;;;;;5009093;28;20486;-52
2022/10/24 05:50:40;;;;;;;6.25;4.07;;;10.10;99.90;;;;;;5028083;28;20490;-56
2022/10/24 05:53:07;;;;;;;8.07;4.22;;;10.20;99.90;;;;;;5007660;28;20037;-53
2022/10/24 05:55:33;;;;;;;7.85;3.97;;;10.30;99.90;;;;;;5027629;28;20544;-56
2022/10/24 05:57:59;;;;;;;6.55;3.50;;;10.50;99.90;;;;;;5007718;28;20045;-55
2022/10/24 06:00:25;;;;;;;9.13;3.97;;;10.50;99.90;;;;;;5027996;28;20049;-56
2022/10/24 06:02:50;;;;;;;5.03;3.47;;;10.60;99.90;;;;;;5007602;28;20105;-55
2022/10/24 06:05:16;;;;;;;4.32;3.45;;;10.60;99.90;;;;;;5027748;28;20037;-52
2022/10/24 06:07:41;;;;;;;6.13;3.90;;;10.70;99.90;;;;;;5007195;28;20030;-55
2022/10/24 06:10:08;;;;;;;7.75;3.72;;;10.70;99.90;;;;;;5016216;28;20026;-55
2022/10/24 06:12:37;;;;;;;5.55;3.58;;;10.80;99.90;;;;;;5014720;28;20057;-54
2022/10/24 06:15:05;;;;;;;7.70;3.85;;;10.90;99.90;;;;;;5006648;28;20029;-58
2022/10/24 06:17:31;;;;;;;5.30;3.08;;;10.90;99.90;;;;;;5022832;28;20037;-55
2022/10/24 06:19:56;;;;;;;6.03;3.30;;;10.90;99.90;;;;;;5006585;28;20382;-56
2022/10/24 06:22:23;;;;;;;6.25;3.85;;;11.00;99.90;;;;;;5024679;28;20051;-55
2022/10/24 06:24:49;;;;;;;4.20;3.25;;;11.10;99.90;;;;;;5003263;28;20097;-53
2022/10/24 06:27:14;;;;;;;9.30;3.80;;;11.10;99.90;;;;;;5021158;28;20116;-56
2022/10/24 06:29:40;;;;;;;7.70;4.18;;;11.10;99.90;;;;;;5015891;28;20541;-54
2022/10/24 06:32:05;;;;;;;5.45;3.08;;;11.20;99.90;;;;;;5013509;28;20037;-52
2022/10/24 06:34:31;;;;;;;5.93;3.80;;;11.30;99.90;;;;;;5030174;28;20226;-56
2022/10/24 06:36:56;;;;;;;8.70;3.50;;;11.40;99.90;;;;;;5011141;28;20049;-54
2022/10/24 06:39:22;;;;;;;6.10;3.55;;;11.40;99.90;;;;;;5009880;28;20041;-57
2022/10/24 06:41:47;;;;;;;8.52;4.00;;;11.50;99.90;;;;;;5027555;28;20519;-51
2022/10/24 06:44:13;;;;;;;7.78;3.58;;;11.60;99.90;;;;;;5030285;28;20469;-53
2022/10/24 06:46:39;;;;;;;7.93;3.92;;;11.60;99.90;;;;;;5011001;28;20684;-53
2022/10/24 06:49:05;;;;;;;5.35;3.78;;;11.70;99.90;;;;;;5030626;28;20060;-53
2022/10/24 06:51:30;;;;;;;6.15;3.20;;;11.80;99.90;;;;;;5008050;28;20026;-55
2022/10/24 06:53:57;;;;;;;5.55;3.58;;;11.80;99.90;;;;;;5017391;28;20040;-55
2022/10/24 06:56:23;;;;;;;8.60;3.50;;;11.80;99.90;;;;;;5029582;28;20025;-56
2022/10/24 06:58:48;;;;;;;6.07;3.10;;;11.90;99.90;;;;;;5028221;28;20038;-53
2022/10/24 07:01:18;;;;;;;7.50;3.65;;;11.90;99.90;;;;;;5011058;28;20075;-54
2022/10/24 07:03:44;;;;;;;4.75;3.63;;;12.10;99.90;;;;;;5009922;28;20026;-52
2022/10/24 07:06:22;;;;;;;7.97;3.50;;;12.10;99.90;;;;;;5029275;28;20064;-54
2022/10/24 07:08:50;;;;;;;4.93;3.15;;;12.20;99.90;;;;;;5005747;28;20030;-56
2022/10/24 07:11:15;;;;;;;8.27;3.13;;;12.30;99.90;;;;;;5029553;28;20059;-55
2022/10/24 07:13:41;;;;;;;9.73;3.45;;;12.50;99.90;;;;;;5008983;28;20116;-53
2022/10/24 07:16:07;;;;;;;6.70;3.92;;;12.60;99.90;;;;;;5029165;28;20677;-55
2022/10/24 07:18:33;;;;;;;4.60;3.10;;;12.60;99.90;;;;;;5008774;28;20026;-49
2022/10/24 07:21:11;;;;;;;6.00;3.10;;;12.80;99.90;;;;;;5028926;28;20033;-55
2022/10/24 07:23:36;;;;;;;12.65;4.00;;;12.90;99.90;;;;;;5008455;28;20030;-55
2022/10/24 07:26:08;;;;;;;7.35;3.28;;;13.00;99.90;;;;;;5010341;28;20520;-56
2022/10/24 07:28:34;;;;;;;6.38;3.20;;;13.10;99.90;;;;;;5004774;28;20530;-56
2022/10/24 07:31:00;;;;;;;6.68;3.20;;;13.20;99.90;;;;;;5028913;28;20083;-54
2022/10/24 07:33:27;;;;;;;9.85;3.58;;;13.30;99.90;;;;;;5007593;28;20486;-51
2022/10/24 07:35:52;;;;;;;8.27;3.35;;;13.40;99.90;;;;;;5013125;28;20768;-53
2022/10/24 07:38:18;;;;;;;6.82;3.17;;;13.50;99.90;;;;;;5007842;28;20050;-55
2022/10/24 07:40:43;;;;;;;6.47;3.05;;;13.60;99.90;;;;;;5017605;28;20034;-58
2022/10/24 07:43:09;;;;;;;5.80;3.28;;;13.70;99.90;;;;;;5013739;28;20402;-55
2022/10/24 07:45:37;;;;;;;4.80;3.13;;;13.80;99.90;;;;;;5028507;28;20124;-57
2022/10/24 07:48:04;;;;;;;5.97;2.75;;;13.90;99.90;;;;;;5007608;28;20033;-57
2022/10/24 07:50:33;;;;;;;8.00;3.40;;;14.00;99.90;;;;;;5024370;28;20058;-57
2022/10/24 07:52:58;;;;;;;4.13;3.08;;;14.00;99.90;;;;;;4998939;28;20034;-54
2022/10/24 07:55:24;;;;;;;5.35;3.35;;;14.10;99.90;;;;;;4990151;28;20036;-56
2022/10/24 07:57:49;;;;;;;7.93;2.90;;;14.20;99.90;;;;;;4999480;28;20034;-55
2022/10/24 08:00:15;;;;;;;7.95;2.83;;;14.40;99.90;;;;;;4990329;28;20043;-57
2022/10/24 08:02:41;;;;;;;10.18;3.03;;;14.50;99.90;;;;;;5006531;28;20034;-54
2022/10/24 08:05:08;;;;;;;4.20;2.10;;;14.70;99.90;;;;;;4990153;28;20062;-58
2022/10/24 08:07:35;;;;;;;4.43;2.80;;;14.70;99.90;;;;;;5006917;28;20053;-57
2022/10/24 08:10:01;;;;;;;5.35;2.33;;;14.80;99.90;;;;;;5009210;28;20485;-56
2022/10/24 08:12:26;;;;;;;3.65;2.53;;;15.00;99.90;;;;;;4994211;28;20117;-55
2022/10/24 08:14:54;;;;;;;6.43;2.90;;;15.10;99.90;;;;;;5008890;28;20030;-55
2022/10/24 08:17:22;;;;;;;7.65;3.28;;;15.20;99.90;;;;;;4992444;28;20527;-55
2022/10/24 08:19:47;;;;;;;10.10;3.47;;;15.40;99.90;;;;;;5009150;28;20030;-53
2022/10/24 08:22:13;;;;;;;4.22;2.35;;;15.50;99.90;;;;;;4991974;28;20030;-55
2022/10/24 08:24:38;;;;;;;9.00;2.58;;;15.60;99.90;;;;;;5005793;28;20530;-53
2022/10/24 08:27:04;;;;;;;5.43;2.47;;;15.70;99.90;;;;;;4989110;28;20628;-57
2022/10/24 08:29:29;;;;;;;6.05;2.35;;;15.80;99.90;;;;;;5009002;28;20033;-50
2022/10/24 08:31:55;;;;;;;5.30;2.70;;;15.90;99.90;;;;;;4989017;28;20153;-54
2022/10/24 08:34:21;;;;;;;6.57;2.67;;;16.00;99.90;;;;;;5008891;28;20038;-54
2022/10/24 08:36:48;;;;;;;4.95;2.47;;;16.10;99.90;;;;;;4992581;28;20046;-56
2022/10/24 08:39:15;;;;;;;4.50;2.53;;;16.20;99.90;;;;;;4988931;28;20045;-54
2022/10/24 08:41:45;;;;;;;5.03;2.65;;;16.40;99.90;;;;;;5004625;28;20037;-56
2022/10/24 08:44:34;;;;;;;4.40;2.63;;;16.40;99.90;;;;;;4987131;28;20023;-55
2022/10/24 08:47:19;;;;;;;4.75;2.40;;;16.50;99.90;;;;;;4969927;28;20046;-56
2022/10/24 08:50:26;;;;;;;4.50;2.72;;;16.60;99.90;;;;;;5008600;28;20548;-53
2022/10/24 08:53:04;;;;;;;10.93;2.70;;;16.70;99.90;;;;;;4984146;28;20033;-53
2022/10/24 08:55:41;;;;;;;6.68;2.42;;;16.70;99.90;;;;;;4969393;28;20043;-55
2022/10/24 08:58:14;;;;;;;5.65;2.75;;;16.80;99.90;;;;;;5005930;28;20030;-56
2022/10/24 09:00:42;;;;;;;5.90;2.60;;;16.90;99.90;;;;;;4976767;28;20483;-54
2022/10/24 09:03:11;;;;;;;6.65;3.17;;;16.90;99.90;;;;;;5006152;28;20026;-55
2022/10/24 09:05:41;;;;;;;6.55;2.80;;;17.00;99.90;;;;;;4988468;28;20047;-55
2022/10/24 09:08:39;;;;;;;6.72;2.45;;;17.10;99.90;;;;;;4987392;28;20038;-54
2022/10/24 09:11:06;;;;;;;8.20;2.60;;;17.20;99.90;;;;;;4954274;28;20039;-56
2022/10/24 09:13:36;;;;;;;6.70;2.22;;;17.30;99.90;;;;;;5006183;28;20038;-54
2022/10/24 09:16:02;;;;;;;7.25;2.53;;;17.40;99.90;;;;;;4988321;28;20037;-47
2022/10/24 09:18:31;;;;;;;5.03;2.20;;;17.50;99.90;;;;;;4992794;28;20035;-52
2022/10/24 09:20:57;;;;;;;5.03;2.35;;;17.60;99.90;;;;;;5007807;28;20030;-49
2022/10/24 09:23:24;;;;;;;4.53;2.08;;;17.60;99.90;;;;;;4989953;28;20038;-50
2022/10/24 09:25:53;;;;;;;6.60;2.50;;;17.60;99.90;;;;;;4988687;28;20082;-51
2022/10/24 09:28:20;;;;;;;6.75;1.95;;;17.70;99.90;;;;;;5005823;28;20077;-49
2022/10/24 09:30:46;;;;;;;7.75;2.60;;;17.80;99.90;;;;;;4989265;28;20261;-47
2022/10/24 09:33:25;;;;;;;6.15;2.33;;;17.80;99.90;;;;;;4996476;28;20126;-49
2022/10/24 09:35:52;;;;;;;6.72;2.80;;;17.90;99.90;;;;;;4969620;28;20031;-53
2022/10/24 09:38:33;;;;;;;10.38;2.55;;;18.00;99.90;;;;;;5005914;28;20632;-47
2022/10/24 09:41:14;;;;;;;3.55;2.35;;;18.00;99.90;;;;;;4969899;28;20038;-50
2022/10/24 09:43:42;;;;;;;6.60;3.25;;;18.10;99.90;;;;;;4981464;28;20031;-52
2022/10/24 09:46:11;;;;;;;6.75;2.40;;;18.10;99.90;;;;;;5008093;28;20037;-50
2022/10/24 09:49:00;;;;;;;4.00;2.10;;;18.20;99.90;;;;;;4987431;28;20523;-48
2022/10/24 09:51:25;;;;;;;6.60;2.10;;;18.20;99.90;;;;;;4970029;28;20037;-49
2022/10/24 09:54:15;;;;;;;4.80;1.98;;;18.20;99.90;;;;;;4990955;28;20030;-49
2022/10/24 09:56:41;;;;;;;5.43;2.17;;;18.30;99.90;;;;;;4970902;28;20508;-49
2022/10/24 09:59:18;;;;;;;5.72;2.22;;;18.40;99.90;;;;;;4992964;28;20061;-52
2022/10/24 10:01:44;;;;;;;7.40;2.00;;;18.50;99.90;;;;;;5012034;28;20040;-47
2022/10/24 10:04:16;;;;;;;7.75;2.10;;;18.50;99.90;;;;;;4991675;28;20022;-51
2022/10/24 10:06:47;;;;;;;7.00;2.55;;;18.70;99.90;;;;;;4973221;28;20039;-50
2022/10/24 10:09:15;;;;;;;5.03;1.95;;;18.70;99.90;;;;;;4992689;28;20046;-54
2022/10/24 10:11:41;;;;;;;3.53;1.88;;;18.70;99.90;;;;;;5010687;28;20029;-50
2022/10/24 10:14:23;;;;;;;3.17;1.45;;;18.90;99.90;;;;;;4991500;28;20037;-53
2022/10/24 10:17:04;;;;;;;6.82;1.90;;;19.10;99.90;;;;;;4973152;28;20494;-52
2022/10/24 10:19:37;;;;;;;5.43;2.05;;;19.20;99.90;;;;;;4990473;28;20254;-48
2022/10/24 10:22:05;;;;;;;8.48;1.90;;;19.30;99.90;;;;;;4973151;28;20030;-50
2022/10/24 10:24:44;;;;;;;5.97;2.10;;;19.40;99.90;;;;;;4987043;28;20023;-49
2022/10/24 10:27:32;;;;;;;8.32;2.63;;;19.50;99.90;;;;;;5009640;28;20038;-51
2022/10/24 10:30:13;;;;;;;5.68;1.90;;;19.50;99.90;;;;;;5012059;28;20050;-49
2022/10/24 10:33:17;;;;;;;5.78;1.98;;;19.40;99.90;;;;;;4994719;28;20113;-54
2022/10/24 10:36:03;;;;;;;4.13;1.98;;;19.40;99.90;;;;;;4992769;28;20512;-52
2022/10/24 10:38:50;;;;;;;7.10;2.03;;;19.40;99.90;;;;;;4991389;28;20049;-49
2022/10/24 10:41:39;;;;;;;6.38;1.85;;;19.40;99.90;;;;;;4992153;28;20030;-49
2022/10/24 10:44:29;;;;;;;6.00;2.13;;;19.40;99.90;;;;;;4985847;28;20494;-49
2022/10/24 10:47:13;;;;;;;3.70;2.00;;;19.40;99.90;;;;;;4971543;28;20081;-45
2022/10/24 10:49:40;;;;;;;5.72;2.25;;;19.40;99.90;;;;;;4990290;28;20698;-50
2022/10/24 10:52:17;;;;;;;4.35;1.88;;;19.40;99.90;;;;;;4997856;28;20057;-48
2022/10/24 10:54:57;;;;;;;5.78;2.08;;;19.40;99.90;;;;;;4977944;28;20061;-53
2022/10/24 10:57:41;;;;;;;8.98;1.85;;;19.40;99.90;;;;;;5008228;28;20034;-53
2022/10/24 11:00:13;;;;;;;5.20;1.90;;;19.30;99.90;;;;;;5010462;28;20367;-52
2022/10/24 11:03:16;;;;;;;6.90;1.83;;;19.30;99.90;;;;;;4975728;28;20045;-51
2022/10/24 11:06:02;;;;;;;6.20;2.20;;;19.30;99.90;;;;;;4987451;28;20045;-48
2022/10/24 11:08:38;;;;;;;8.60;2.30;;;19.20;99.90;;;;;;4987108;28;20125;-48
2022/10/24 11:11:21;;;;;;;5.25;2.15;;;19.20;99.90;;;;;;4971428;28;20034;-51
2022/10/24 11:13:59;;;;;;;6.85;2.22;;;19.20;99.90;;;;;;4992502;28;20034;-49
2022/10/24 11:16:26;;;;;;;4.18;1.58;;;19.20;99.90;;;;;;4971201;28;20037;-53
2022/10/24 11:18:58;;;;;;;6.35;1.63;;;19.30;99.90;;;;;;4995028;28;20109;-51
2022/10/24 11:21:24;;;;;;;5.63;1.52;;;19.30;99.90;;;;;;4971000;28;20027;-51
2022/10/24 11:23:59;;;;;;;6.03;1.95;;;19.30;99.90;;;;;;4991777;28;20037;-50
2022/10/24 11:26:40;;;;;;;5.15;1.60;;;19.30;99.90;;;;;;4970990;28;20038;-55
2022/10/24 11:29:34;;;;;;;4.93;1.65;;;19.30;99.90;;;;;;4982604;28;20109;-56
2022/10/24 11:32:21;;;;;;;7.82;2.25;;;19.30;99.90;;;;;;5008909;28;20045;-57
2022/10/24 11:35:24;;;;;;;7.57;2.03;;;19.40;99.90;;;;;;4988057;28;20653;-56
2022/10/24 11:37:55;;;;;;;6.78;1.95;;;19.40;99.90;;;;;;5007188;28;20046;-57
2022/10/24 11:40:25;;;;;;;7.45;2.40;;;19.40;99.90;;;;;;5009348;28;20036;-56
2022/10/24 11:43:08;;;;;;;5.18;2.30;;;19.40;99.90;;;;;;4988127;28;20025;-55
2022/10/24 11:45:47;;;;;;;6.63;2.58;;;19.40;99.90;;;;;;4989758;28;20061;-55
2022/10/24 11:48:22;;;;;;;10.43;2.38;;;19.40;99.90;;;;;;4981388;28;20766;-49
2022/10/24 11:51:11;;;;;;;8.15;2.95;;;19.40;99.90;;;;;;5009382;28;20026;-52
2022/10/24 11:53:38;;;;;;;7.03;3.25;;;19.40;99.90;;;;;;4993297;28;20038;-54
2022/10/24 11:56:16;;;;;;;8.57;4.35;;;19.40;99.90;;;;;;4988654;28;20050;-55
2022/10/24 11:58:55;;;;;;;6.18;3.20;;;19.40;99.90;;;;;;4984098;28;20449;-55
2022/10/24 12:02:06;;;;;;;10.07;3.75;;;19.40;99.90;;;;;;4971008;28;20055;-55
2022/10/24 12:05:09;;;;;;;6.53;2.20;;;19.40;99.90;;;;;;4984918;28;20085;-55
2022/10/24 12:08:11;;;;;;;10.25;2.60;;;19.40;99.90;;;;;;5001416;28;20046;-55
2022/10/24 12:11:11;;;;;;;5.60;2.30;;;19.40;99.90;;;;;;4989721;28;20089;-56
2022/10/24 12:14:10;;;;;;;6.53;2.03;;;19.40;99.90;;;;;;4986156;28;20803;-55
2022/10/24 12:17:12;;;;;;;8.10;2.00;;;19.50;99.90;;;;;;4985699;28;20113;-56
2022/10/24 12:19:40;;;;;;;6.47;2.15;;;19.40;98.60;;;;;;4984991;28;20129;-54
2022/10/24 12:22:10;;;;;;;7.20;2.25;;;19.40;99.90;;;;;;5008593;28;20533;-52
2022/10/24 12:24:39;;;;;;;13.77;3.33;;;19.40;99.90;;;;;;4977896;28;20391;-54
2022/10/24 12:27:19;;;;;;;7.05;2.92;;;19.30;99.40;;;;;;5007242;28;20042;-53
2022/10/24 12:29:44;;;;;;;6.93;2.70;;;19.30;99.90;;;;;;4985695;28;20694;-53
2022/10/24 12:32:30;;;;;;;6.63;2.97;;;19.30;99.90;;;;;;5008384;28;20039;-53
2022/10/24 12:35:01;;;;;;;8.20;2.57;;;19.30;99.70;;;;;;4986962;28;20115;-53
2022/10/24 12:37:32;;;;;;;5.97;2.50;;;19.30;99.40;;;;;;4997875;28;20073;-52
2022/10/24 12:39:59;;;;;;;5.90;2.10;;;19.30;99.90;;;;;;4987521;28;20084;-50
2022/10/24 12:42:24;;;;;;;7.03;2.28;;;19.30;99.90;;;;;;5008340;28;20034;-46
2022/10/24 12:44:50;;;;;;;5.35;3.03;;;19.30;99.90;;;;;;4987913;28;20034;-48
2022/10/24 12:47:34;;;;;;;7.80;3.47;;;19.30;99.90;;;;;;5007789;28;20041;-48
2022/10/24 12:50:19;;;;;;;9.55;2.90;;;19.30;99.90;;;;;;4986723;28;20018;-50
2022/10/24 12:52:44;;;;;;;9.45;3.50;;;19.20;98.90;;;;;;5005941;28;20029;-48
2022/10/24 12:55:34;;;;;;;8.13;3.05;;;19.30;99.90;;;;;;5008676;28;20025;-48
2022/10/24 12:58:01;;;;;;;11.25;4.28;;;19.30;98.60;;;;;;4990328;28;20076;-46
2022/10/24 13:00:29;;;;;;;6.93;2.95;;;19.30;99.90;;;;;;5008748;28;20018;-47
2022/10/24 13:03:42;;;;;;;8.85;3.65;;;19.30;99.90;;;;;;4989044;28;20030;-47
2022/10/24 13:06:07;;;;;;;9.98;4.05;;;19.30;97.90;;;;;;4947385;29;20039;-47